createdAt,value
2018-06-13T00:00:33.262Z,16.48
2018-06-13T00:03:08.435Z,16.43
2018-06-13T00:05:43.023Z,16.35
2018-06-13T00:08:18.062Z,16.29
2018-06-13T00:10:52.756Z,16.33
2018-06-13T00:13:27.454Z,16.36
2018-06-13T00:16:02.656Z,16.36
2018-06-13T00:18:37.170Z,16.38
2018-06-13T00:21:12.094Z,16.42
2018-06-13T00:23:46.841Z,16.40
2018-06-13T00:26:21.702Z,16.34
2018-06-13T00:28:56.533Z,16.25
2018-06-13T00:31:31.146Z,16.19
2018-06-13T00:34:06.229Z,16.19
2018-06-13T00:36:40.797Z,16.18
2018-06-13T00:39:15.555Z,16.14
2018-06-13T00:41:50.650Z,16.10
2018-06-13T00:44:25.185Z,16.09
2018-06-13T00:47:00.108Z,16.04
2018-06-13T00:49:34.974Z,15.97
2018-06-13T00:52:09.721Z,15.98
2018-06-13T00:54:44.422Z,15.95
2018-06-13T00:57:19.438Z,15.92
2018-06-13T00:59:54.042Z,15.90
2018-06-13T01:02:28.738Z,15.93
2018-06-13T01:05:03.422Z,15.98
2018-06-13T01:07:38.919Z,16.02
2018-06-13T01:10:13.205Z,16.02
2018-06-13T01:12:48.033Z,16.00
2018-06-13T01:15:22.694Z,15.93
2018-06-13T01:17:57.580Z,15.86
2018-06-13T01:20:32.178Z,15.80
2018-06-13T01:23:06.829Z,15.80
2018-06-13T01:25:41.666Z,15.74
2018-06-13T01:28:16.777Z,15.70
2018-06-13T01:30:51.562Z,15.69
2018-06-13T01:33:26.094Z,15.62
2018-06-13T01:36:00.848Z,15.58
2018-06-13T01:38:35.821Z,15.62
2018-06-13T01:41:10.719Z,15.64
2018-06-13T01:43:45.443Z,15.63
2018-06-13T01:46:20.458Z,15.67
2018-06-13T01:48:56.113Z,15.60
2018-06-13T01:51:30.691Z,15.55
2018-06-13T01:54:05.477Z,15.52
2018-06-13T01:56:40.145Z,15.52
2018-06-13T01:59:14.998Z,15.51
2018-06-13T02:01:49.807Z,15.48
2018-06-13T02:04:25.218Z,15.47
2018-06-13T02:07:00.271Z,15.46
2018-06-13T02:09:35.257Z,15.51
2018-06-13T02:12:09.942Z,15.53
2018-06-13T02:14:44.695Z,15.52
2018-06-13T02:17:19.422Z,15.42
2018-06-13T02:19:54.545Z,15.32
2018-06-13T02:22:28.953Z,15.29
2018-06-13T02:25:03.802Z,15.23
2018-06-13T02:27:38.201Z,15.19
2018-06-13T02:30:13.374Z,15.12
2018-06-13T02:32:48.802Z,15.00
2018-06-13T02:35:23.681Z,14.96
2018-06-13T02:37:58.276Z,14.95
2018-06-13T02:40:33.327Z,14.94
2018-06-13T02:43:08.157Z,14.94
2018-06-13T02:45:42.944Z,14.93
2018-06-13T02:48:17.994Z,14.88
2018-06-13T02:50:53.065Z,14.84
2018-06-13T02:53:27.669Z,14.79
2018-06-13T02:56:02.001Z,14.78
2018-06-13T02:58:37.274Z,14.79
2018-06-13T03:01:11.852Z,14.78
2018-06-13T03:03:46.518Z,14.74
2018-06-13T03:06:21.213Z,14.75
2018-06-13T03:08:55.798Z,14.70
2018-06-13T03:11:30.424Z,14.68
2018-06-13T03:14:05.149Z,14.67
2018-06-13T03:16:39.893Z,14.68
2018-06-13T03:19:14.617Z,14.65
2018-06-13T03:21:49.260Z,14.61
2018-06-13T03:24:23.977Z,14.58
2018-06-13T03:26:58.922Z,14.52
2018-06-13T03:29:33.737Z,14.54
2018-06-13T03:32:08.518Z,14.56
2018-06-13T03:34:43.328Z,14.53
2018-06-13T03:37:18.070Z,14.52
2018-06-13T03:39:52.828Z,14.51
2018-06-13T03:42:27.629Z,14.52
2018-06-13T03:45:02.460Z,14.51
2018-06-13T03:47:37.045Z,14.49
2018-06-13T03:50:12.072Z,14.47
2018-06-13T03:52:46.709Z,14.53
2018-06-13T03:55:21.192Z,14.61
2018-06-13T03:57:55.872Z,14.59
2018-06-13T04:00:31.289Z,14.55
2018-06-13T04:03:06.490Z,14.52
2018-06-13T04:05:41.213Z,14.49
2018-06-13T04:08:16.128Z,14.53
2018-06-13T04:10:50.853Z,14.61
2018-06-13T04:13:25.549Z,14.64
2018-06-13T04:16:00.433Z,14.76
2018-06-13T04:18:35.249Z,14.82
2018-06-13T04:21:10.067Z,14.78
2018-06-13T04:23:45.345Z,14.73
2018-06-13T04:26:20.565Z,14.72
2018-06-13T04:28:55.171Z,14.66
2018-06-13T04:31:30.233Z,14.67
2018-06-13T04:34:04.752Z,14.70
2018-06-13T04:36:39.260Z,14.79
2018-06-13T04:39:13.933Z,14.79
2018-06-13T04:41:48.961Z,14.76
2018-06-13T04:44:23.685Z,14.75
2018-06-13T04:46:58.428Z,14.77
2018-06-13T04:49:33.101Z,14.80
2018-06-13T04:52:07.777Z,14.87
2018-06-13T04:54:42.529Z,14.96
2018-06-13T04:57:17.093Z,14.98
2018-06-13T04:59:51.620Z,14.98
2018-06-13T05:02:26.542Z,14.96
2018-06-13T05:05:01.496Z,14.95
2018-06-13T05:07:36.208Z,14.92
2018-06-13T05:10:10.886Z,14.94
2018-06-13T05:12:45.667Z,15.05
2018-06-13T05:15:21.520Z,15.19
2018-06-13T05:17:56.345Z,15.24
2018-06-13T05:20:31.292Z,15.26
2018-06-13T05:23:05.765Z,15.24
2018-06-13T05:25:40.444Z,15.25
2018-06-13T05:28:15.172Z,15.27
2018-06-13T05:30:49.974Z,15.22
2018-06-13T05:33:24.718Z,15.21
2018-06-13T05:35:59.433Z,15.24
2018-06-13T05:38:34.513Z,15.25
2018-06-13T05:41:08.898Z,15.24
2018-06-13T05:43:43.500Z,15.30
2018-06-13T05:46:18.192Z,15.35
2018-06-13T05:48:53.054Z,15.40
2018-06-13T05:51:27.492Z,15.44
2018-06-13T05:54:02.400Z,15.44
2018-06-13T05:56:37.433Z,15.47
2018-06-13T05:59:12.604Z,15.47
2018-06-13T06:01:46.953Z,15.45
2018-06-13T06:04:21.544Z,15.46
2018-06-13T06:06:56.445Z,15.46
2018-06-13T06:09:31.028Z,15.37
2018-06-13T06:12:06.285Z,15.21
2018-06-13T06:14:40.568Z,15.12
2018-06-13T06:17:15.640Z,15.10
2018-06-13T06:19:49.981Z,15.12
2018-06-13T06:22:24.870Z,15.19
2018-06-13T06:24:59.421Z,15.32
2018-06-13T06:27:34.028Z,15.43
2018-06-13T06:30:09.063Z,15.44
2018-06-13T06:32:43.832Z,15.51
2018-06-13T06:35:18.601Z,15.61
2018-06-13T06:37:53.285Z,15.81
2018-06-13T06:40:28.474Z,15.93
2018-06-13T06:43:02.861Z,15.93
2018-06-13T06:45:37.400Z,15.90
2018-06-13T06:48:12.454Z,15.95
2018-06-13T06:50:46.889Z,16.06
2018-06-13T06:53:21.649Z,16.09
2018-06-13T06:55:56.397Z,16.15
2018-06-13T06:58:31.189Z,16.24
2018-06-13T07:01:06.269Z,16.32
2018-06-13T07:03:40.620Z,16.38
2018-06-13T07:06:15.205Z,16.48
2018-06-13T07:08:49.782Z,16.58
2018-06-13T07:11:24.748Z,16.55
2018-06-13T07:13:58.999Z,16.47
2018-06-13T07:16:33.683Z,16.47
2018-06-13T07:19:08.504Z,16.52
2018-06-13T07:21:43.114Z,16.58
2018-06-13T07:24:17.959Z,16.56
2018-06-13T07:26:52.877Z,16.58
2018-06-13T07:29:28.057Z,16.54
2018-06-13T07:32:02.436Z,16.52
2018-06-13T07:34:36.744Z,16.56
2018-06-13T07:37:11.948Z,16.54
2018-06-13T07:39:46.400Z,16.50
2018-06-13T07:42:21.432Z,16.45
2018-06-13T07:44:55.868Z,16.40
2018-06-13T07:47:31.009Z,16.43
2018-06-13T07:50:05.890Z,16.46
2018-06-13T07:52:41.128Z,16.39
2018-06-13T07:55:16.215Z,16.32
2018-06-13T07:57:50.653Z,16.31
2018-06-13T08:00:25.325Z,16.29
2018-06-13T08:03:00.173Z,16.26
2018-06-13T08:05:34.835Z,16.27
2018-06-13T08:08:09.458Z,16.31
2018-06-13T08:10:44.193Z,16.43
2018-06-13T08:13:18.903Z,16.55
2018-06-13T08:15:53.569Z,16.67
2018-06-13T08:18:28.277Z,16.78
2018-06-13T08:21:03.119Z,16.91
2018-06-13T08:23:38.169Z,17.05
2018-06-13T08:26:12.702Z,17.19
2018-06-13T08:28:47.308Z,17.36
2018-06-13T08:31:22.097Z,17.55
2018-06-13T08:33:57.217Z,17.69
2018-06-13T08:36:31.838Z,17.85
2018-06-13T08:39:08.068Z,17.91
2018-06-13T08:41:42.792Z,17.89
2018-06-13T08:44:17.412Z,17.91
2018-06-13T08:46:51.645Z,17.85
2018-06-13T08:49:26.365Z,17.72
2018-06-13T08:52:01.318Z,17.64
2018-06-13T08:54:35.999Z,17.63
2018-06-13T08:57:10.619Z,17.65
2018-06-13T08:59:45.375Z,17.62
2018-06-13T09:02:20.484Z,17.61
2018-06-13T09:04:54.959Z,17.75
2018-06-13T09:07:29.726Z,17.87
2018-06-13T09:10:04.541Z,17.98
2018-06-13T09:12:39.176Z,17.94
2018-06-13T09:15:13.972Z,18.00
2018-06-13T09:17:48.632Z,18.13
2018-06-13T09:20:23.724Z,18.25
2018-06-13T09:22:58.132Z,18.29
2018-06-13T09:25:33.197Z,18.31
2018-06-13T09:28:08.384Z,18.33
2018-06-13T09:30:43.564Z,18.38
2018-06-13T09:33:18.537Z,18.48
2018-06-13T09:35:52.996Z,18.62
2018-06-13T09:38:27.892Z,18.66
2018-06-13T09:41:02.556Z,18.76
2018-06-13T09:43:37.504Z,18.88
2018-06-13T09:46:12.295Z,19.02
2018-06-13T09:48:49.595Z,19.10
2018-06-13T09:51:24.752Z,19.08
2018-06-13T09:53:59.620Z,19.10
2018-06-13T09:56:34.645Z,19.16
2018-06-13T09:59:13.341Z,19.14
2018-06-13T10:01:54.565Z,19.01
2018-06-13T10:04:29.566Z,19.06
2018-06-13T10:07:04.169Z,19.00
2018-06-13T10:09:38.877Z,18.81
2018-06-13T10:12:13.640Z,18.62
2018-06-13T10:14:48.382Z,18.40
2018-06-13T10:17:23.077Z,18.16
2018-06-13T10:19:57.969Z,18.05
2018-06-13T10:22:32.838Z,17.88
2018-06-13T10:25:07.516Z,17.66
2018-06-13T10:27:42.904Z,17.60
2018-06-13T10:30:17.992Z,17.65
2018-06-13T10:32:52.464Z,17.58
2018-06-13T10:35:27.517Z,17.55
2018-06-13T10:38:02.449Z,17.43
2018-06-13T10:40:37.632Z,17.18
2018-06-13T10:43:12.136Z,17.09
2018-06-13T10:45:47.205Z,17.02
2018-06-13T10:48:22.134Z,16.95
2018-06-13T10:50:56.519Z,16.95
2018-06-13T10:53:31.445Z,17.02
2018-06-13T10:56:05.885Z,17.05
2018-06-13T10:58:40.789Z,17.01
2018-06-13T11:01:15.857Z,16.85
2018-06-13T11:03:50.785Z,16.85
2018-06-13T11:06:25.596Z,16.97
2018-06-13T11:09:00.417Z,17.02
2018-06-13T11:11:34.909Z,17.07
2018-06-13T11:14:09.960Z,17.11
2018-06-13T11:16:44.532Z,17.16
2018-06-13T11:19:19.690Z,17.35
2018-06-13T11:21:54.069Z,17.56
2018-06-13T11:24:28.689Z,17.71
2018-06-13T11:27:03.347Z,17.70
2018-06-13T11:29:38.100Z,17.71
2018-06-13T11:32:12.857Z,17.84
2018-06-13T11:34:47.204Z,17.88
2018-06-13T11:37:21.413Z,17.90
2018-06-13T11:39:56.248Z,17.96
2018-06-13T11:42:31.189Z,18.06
2018-06-13T11:45:06.070Z,18.32
2018-06-13T11:47:40.985Z,18.59
2018-06-13T11:50:15.508Z,18.75
2018-06-13T11:52:50.527Z,18.90
2018-06-13T11:55:25.293Z,18.95
2018-06-13T11:57:59.929Z,18.85
2018-06-13T12:00:35.157Z,18.79
2018-06-13T12:03:09.925Z,18.65
2018-06-13T12:05:44.876Z,18.47
2018-06-13T12:08:19.865Z,18.36
2018-06-13T12:10:54.403Z,18.35
2018-06-13T12:13:29.605Z,18.32
2018-06-13T12:16:04.224Z,18.36
2018-06-13T12:18:39.321Z,18.49
2018-06-13T12:21:14.194Z,18.71
2018-06-13T12:23:48.796Z,18.89
2018-06-13T12:26:23.493Z,19.02
2018-06-13T12:28:58.244Z,19.07
2018-06-13T12:31:32.960Z,19.04
2018-06-13T12:34:08.005Z,19.15
2018-06-13T12:36:42.993Z,19.29
2018-06-13T12:39:18.128Z,19.35
2018-06-13T12:41:53.308Z,19.31
2018-06-13T12:44:27.545Z,19.25
2018-06-13T12:47:02.308Z,19.22
2018-06-13T12:49:37.188Z,19.22
2018-06-13T12:52:11.992Z,19.13
2018-06-13T12:54:46.560Z,18.99
2018-06-13T12:57:21.325Z,18.96
2018-06-13T12:59:55.969Z,19.10
2018-06-13T13:02:30.785Z,19.28
2018-06-13T13:05:05.716Z,19.32
2018-06-13T13:07:40.242Z,19.37
2018-06-13T13:10:14.919Z,19.29
2018-06-13T13:12:49.852Z,19.26
2018-06-13T13:15:24.036Z,19.23
2018-06-13T13:17:59.114Z,19.20
2018-06-13T13:20:33.900Z,19.22
2018-06-13T13:23:08.272Z,19.15
2018-06-13T13:25:43.225Z,19.02
2018-06-13T13:28:18.076Z,19.01
2018-06-13T13:30:53.093Z,18.88
2018-06-13T13:33:27.933Z,18.66
2018-06-13T15:48:03.526Z,20.27
2018-06-13T15:50:38.970Z,20.28
2018-06-13T15:53:14.321Z,20.35
2018-06-13T15:55:48.733Z,20.47
2018-06-13T15:58:23.549Z,20.60
2018-06-13T16:00:58.521Z,20.67
2018-06-13T16:03:34.252Z,20.68
2018-06-13T16:06:08.869Z,20.62
2018-06-13T16:08:43.913Z,20.66
2018-06-13T16:11:18.496Z,20.65
2018-06-13T16:13:53.101Z,20.53
2018-06-13T16:16:27.590Z,20.27
2018-06-13T16:19:02.641Z,19.95
2018-06-13T16:21:37.072Z,19.83
2018-06-13T16:24:11.861Z,19.87
2018-06-13T16:26:48.456Z,19.93
2018-06-13T16:29:23.350Z,19.95
2018-06-13T16:31:57.692Z,20.06
2018-06-13T16:34:32.754Z,20.22
2018-06-13T16:37:07.546Z,20.31
2018-06-13T16:39:41.974Z,20.41
2018-06-13T16:42:16.714Z,20.45
2018-06-13T16:44:51.453Z,20.38
2018-06-13T16:47:26.006Z,20.36
2018-06-13T16:50:01.281Z,20.36
2018-06-13T16:52:47.794Z,20.33
2018-06-13T16:55:24.162Z,20.28
2018-06-13T16:57:58.541Z,20.18
2018-06-13T17:00:33.476Z,20.14
2018-06-13T17:03:07.984Z,20.13
2018-06-13T17:05:43.100Z,20.04
2018-06-13T17:08:17.934Z,19.99
2018-06-13T17:10:52.792Z,20.03
2018-06-13T17:13:27.234Z,20.08
2018-06-13T17:16:02.253Z,20.12
2018-06-13T17:18:37.061Z,20.15
2018-06-13T17:21:12.021Z,20.14
2018-06-13T17:23:47.060Z,20.01
2018-06-13T17:26:21.552Z,19.97
2018-06-13T17:28:56.166Z,19.96
2018-06-13T17:31:30.893Z,19.93
2018-06-13T17:34:05.770Z,19.97
2018-06-13T17:36:40.573Z,19.96
2018-06-13T17:39:15.188Z,19.98
2018-06-13T17:41:50.356Z,20.01
2018-06-13T17:44:25.002Z,19.93
2018-06-13T17:46:59.773Z,19.76
2018-06-13T17:49:34.384Z,19.70
2018-06-13T17:52:09.756Z,19.72
2018-06-13T17:54:44.813Z,19.69
2018-06-13T17:57:19.585Z,19.62
2018-06-13T17:59:54.858Z,19.60
2018-06-13T18:02:29.592Z,19.45
2018-06-13T18:05:04.179Z,19.37
2018-06-13T18:07:39.241Z,19.31
2018-06-13T18:10:13.773Z,19.25
2018-06-13T18:12:48.942Z,19.31
2018-06-13T18:15:23.729Z,19.40
2018-06-13T18:17:58.606Z,19.37
2018-06-13T18:20:33.333Z,19.24
2018-06-13T18:23:08.275Z,19.07
2018-06-13T18:25:42.677Z,18.91
2018-06-13T18:28:17.536Z,18.78
2018-06-13T18:30:52.764Z,18.71
2018-06-13T18:33:27.063Z,18.67
2018-06-13T18:36:01.955Z,18.61
2018-06-13T18:38:36.637Z,18.53
2018-06-13T18:41:11.018Z,18.50
2018-06-13T18:43:45.793Z,18.45
2018-06-13T18:46:20.415Z,18.50
2018-06-13T18:48:55.169Z,18.53
2018-06-13T18:51:30.306Z,18.64
2018-06-13T18:54:04.639Z,18.74
2018-06-13T18:56:39.206Z,18.77
2018-06-13T18:59:13.801Z,18.82
2018-06-13T19:01:48.480Z,18.84
2018-06-13T19:04:23.506Z,18.81
2018-06-13T19:06:58.301Z,18.80
2018-06-13T19:09:32.954Z,18.83
2018-06-13T19:12:07.574Z,18.99
2018-06-13T19:14:42.597Z,19.15
2018-06-13T19:17:16.929Z,19.19
2018-06-13T19:19:52.106Z,19.27
2018-06-13T19:22:26.546Z,19.37
2018-06-13T19:25:01.503Z,19.39
2018-06-13T19:27:36.021Z,19.41
2018-06-13T19:30:10.679Z,19.40
2018-06-13T19:32:45.700Z,19.39
2018-06-13T19:35:20.156Z,19.30
2018-06-13T19:37:54.931Z,19.27
2018-06-13T19:40:29.704Z,19.29
2018-06-13T19:43:09.134Z,19.34
2018-06-13T19:45:43.746Z,19.39
2018-06-13T19:48:24.365Z,19.43
2018-06-13T19:50:59.441Z,19.34
2018-06-13T19:53:39.944Z,19.05
2018-06-13T19:56:16.444Z,18.63
2018-06-13T19:58:52.090Z,18.26
2018-06-13T20:01:26.700Z,18.02
2018-06-13T20:04:06.543Z,17.78
2018-06-13T20:06:41.757Z,17.55
2018-06-13T20:09:16.885Z,17.39
2018-06-13T20:11:51.849Z,17.26
2018-06-13T20:14:31.761Z,17.17
2018-06-13T20:17:12.086Z,17.08
2018-06-13T20:19:48.975Z,17.00
2018-06-13T20:22:24.143Z,16.91
2018-06-13T20:25:04.858Z,16.85
2018-06-13T20:27:45.325Z,16.80
2018-06-13T20:30:26.372Z,16.74
2018-06-13T20:33:01.619Z,16.67
2018-06-13T20:35:36.284Z,16.60
2018-06-13T20:38:10.683Z,16.59
2018-06-13T20:40:45.689Z,16.59
2018-06-13T20:43:20.330Z,16.57
2018-06-13T20:45:55.234Z,16.51
2018-06-13T20:48:29.709Z,16.45
2018-06-13T20:51:05.014Z,16.37
2018-06-13T20:53:40.368Z,16.31
2018-06-13T20:56:15.129Z,16.27
2018-06-13T20:58:50.236Z,16.24
2018-06-13T21:01:25.726Z,16.18
2018-06-13T21:04:00.057Z,16.13
2018-06-13T21:06:35.012Z,16.11
2018-06-13T21:09:10.408Z,16.07
2018-06-13T21:11:45.401Z,16.04
2018-06-13T21:14:20.129Z,15.98
2018-06-13T21:16:54.464Z,15.94
2018-06-13T21:19:28.960Z,15.88
2018-06-13T21:22:03.621Z,15.79
2018-06-13T21:24:38.538Z,15.69
2018-06-13T21:27:12.841Z,15.64
2018-06-13T21:29:47.783Z,15.61
2018-06-13T21:32:22.243Z,15.55
2018-06-13T21:34:57.006Z,15.45
2018-06-13T21:37:32.057Z,15.37
2018-06-13T21:40:06.498Z,15.29
2018-06-13T21:42:41.439Z,15.23
2018-06-13T21:45:16.340Z,15.19
2018-06-13T21:47:52.240Z,15.16
2018-06-13T21:50:26.852Z,15.14
2018-06-13T21:53:01.691Z,15.07
2018-06-13T21:55:36.466Z,15.00
2018-06-13T21:58:11.837Z,14.92
2018-06-13T22:00:46.965Z,14.87
2018-06-13T22:03:22.272Z,14.85
2018-06-13T22:05:57.162Z,14.82
2018-06-13T22:08:31.750Z,14.78
2018-06-13T22:11:06.359Z,14.78
2018-06-13T22:13:40.982Z,14.80
2018-06-13T22:16:15.669Z,14.84
2018-06-13T22:18:51.689Z,14.90
2018-06-13T22:21:26.129Z,14.96
2018-06-13T22:24:00.742Z,15.00
2018-06-13T22:26:35.350Z,15.00
2018-06-13T22:29:10.136Z,14.95
2018-06-13T22:31:44.613Z,14.91
2018-06-13T22:34:19.344Z,14.91
2018-06-13T22:36:54.268Z,14.91
2018-06-13T22:39:29.002Z,14.85
2018-06-13T22:42:03.942Z,14.75
2018-06-13T22:44:38.713Z,14.67
2018-06-13T22:47:13.105Z,14.63
2018-06-13T22:49:48.185Z,14.62
2018-06-13T22:52:22.636Z,14.58
2018-06-13T22:54:57.821Z,14.51
2018-06-13T22:57:32.214Z,14.39
2018-06-13T23:00:07.489Z,14.27
2018-06-13T23:02:42.345Z,14.19
2018-06-13T23:05:17.374Z,14.13
2018-06-13T23:07:52.552Z,14.03
2018-06-13T23:10:28.468Z,13.96
2018-06-13T23:13:03.881Z,13.89
2018-06-13T23:15:38.855Z,13.85
2018-06-13T23:18:13.533Z,13.83
2018-06-13T23:20:48.228Z,13.80
2018-06-13T23:23:23.081Z,13.80
2018-06-13T23:25:58.006Z,13.77
2018-06-13T23:28:33.348Z,13.71
2018-06-13T23:31:08.213Z,13.67
2018-06-13T23:33:42.693Z,13.63
2018-06-13T23:36:17.472Z,13.59
2018-06-13T23:38:52.253Z,13.57
2018-06-13T23:41:27.233Z,13.54
2018-06-13T23:44:01.644Z,13.50
2018-06-13T23:46:36.638Z,13.46
2018-06-13T23:49:11.352Z,13.43
2018-06-13T23:51:46.026Z,13.40
2018-06-13T23:54:21.905Z,13.39
2018-06-13T23:56:57.656Z,13.36
2018-06-13T23:59:33.040Z,13.29
